Choix d'un mois et d'une année:    

Climatologie mensuelle : Juin 2019

Jour Température Vent Pluie Humidité Pression Radiations solaires
min moy max moyen rafale Secteur Max (W/m²) Durée
01/06/2019 10.3 21.8 32.1 2.8 34.4 NE 0 66 1023.1 933.6 12h55
02/06/2019 12.1 14.3 19.4 0.1 3.2 NE 0 91.2 1019.2 288.2 1h40
03/06/2019 16.2 24.4 29.7 8.1 40 SSO 0 50.1 1016 909.6 5h25
04/06/2019 11.5 23 31.2 8.2 37.6 E 0 63 1010.2 957.6 7h05
05/06/2019 16.6 22.9 29.9 5.2 30.4 NE 7.3 67.9 1007.7 1059.7 7h35
06/06/2019 10.4 13.7 18 8.1 37.6 SSO 0 76.3 1015.4 642.4 2h05
07/06/2019 8.5 15.9 26.6 10.7 56.8 NE 0 68.9 1012.7 1071.7 5h45
08/06/2019 11.6 16 21.9 12.5 40.8 SSO 0 61.7 1023 1029.7 4h30
09/06/2019 6.5 16.6 23.4 4.2 24 NE 0 69.2 1021.9 918.6 2h25
10/06/2019 14 17.1 23.5 7.2 30.4 E 6.2 80.5 1014.9 855.6 1h40
11/06/2019 11.4 15.1 20.4 3.8 18.4 SSO 0 81.5 1013.6 933.6 0h45
12/06/2019 12 15.8 23.2 6.5 28.8 S 5.2 78.5 1012.3 1140.8 3h00
13/06/2019 9.6 17.2 24.8 9.6 32 ESE 0 64.4 1015.6 1080.7 7h10
14/06/2019 16.3 21 26 7 25.6 E 0 69.9 1015.2 936.6 1h00
15/06/2019 15.9 19.9 26.4 7.1 25.6 SSO 4.7 75.1 1016.6 1113.7 4h15
16/06/2019 12.9 20 26.8 5.8 26.4 SSO 0 62.5 1022.6 1143.8 10h05
17/06/2019 10.1 20.8 28.5 4.1 24.8 N 0 64.5 1020.4 1047.7 11h05
18/06/2019 12.9 23.7 31.6 3.3 22.4 N 0 63 1015.3 1125.8 8h25
19/06/2019 14.8 22.6 31.1 5.1 29.6 ESE 0.5 67.9 1011.3 1041.7 4h40
20/06/2019 15.7 19.8 25.8 8.2 37.6 SSO 0 73 1015.2 1095.7 3h05
21/06/2019 12.6 20 26 4.5 23.2 ONO 0 55.2 1020.2 1137.8 11h35
22/06/2019 12.7 18.3 24 4.4 16.8 O 0 71 1019.6 591.4 0h30
23/06/2019 12.8 22.3 28.7 7.4 38.4 NE 0 67.5 1018.6 1068.7 8h30
24/06/2019 15.1 25.9 33.5 4.2 18.4 NE 0 62.3 1018.9 966.6 10h50
Moyennes 12.6 19.5 26.4 6.2 - - - 68.8 1016.6 962.1 -
Total - - - - - - 23.9 - - - 136h00


Nombre de jours
Pluie Gel Chaleur
avec pluie : 5 avec gelée : 0 avec chaleur (>=30): 5
avec plus de 1mm : 4 avec forte gelée (<=-5): 0 avec canicule (>=35): 0
avec plus de 5mm : 3 sans dégel : 0
avec plus de 10mm : 0

Répartition des vents
Direction Fréquence
N 7.2
NNE 0
NE 17.9
ENE 0
E 10.4
ESE 9.2
SE 6.6
SSE 4.8
S 9.8
SSO 14.2
SO 4.8
OSO 3
SSO 3.9
ONO 3.5
NO 2
NNO 2.8

Radiations solaires mensuelles : Juin 2019

Jour Ciel limpide Ciel laiteux Ciel nuageux Ciel couvert Durée
Durée % Durée % Durée % Durée % du jour
01/06/2019 12h55 81 1h20 8.4 0h20 2.1 0h00 0 15h57
02/06/2019 1h40 10.4 0h00 0 0h00 0 0h00 0 15h59
03/06/2019 5h25 33.8 1h50 11.4 2h15 14 2h15 14 16h01
04/06/2019 7h05 44.2 4h40 29.1 2h15 14 0h15 1.6 16h02
05/06/2019 7h35 47.2 0h35 3.6 1h55 11.9 4h15 26.5 16h04
06/06/2019 2h05 13 0h25 2.6 2h45 17.1 9h35 59.6 16h05
07/06/2019 5h45 35.7 0h35 3.6 2h40 16.6 5h20 33.1 16h06
08/06/2019 4h30 27.9 0h35 3.6 5h15 32.6 4h10 25.9 16h07
09/06/2019 2h25 15 2h25 15 6h15 38.7 3h20 20.7 16h08
10/06/2019 1h40 10.3 0h20 2.1 3h40 22.7 8h35 53.1 16h09
11/06/2019 0h45 4.6 0h15 1.5 3h35 22.2 9h50 60.8 16h10
12/06/2019 3h00 18.5 0h55 5.7 3h15 20.1 7h25 45.8 16h11
13/06/2019 7h10 44.2 1h05 6.7 2h20 14.4 1h40 10.3 16h12
14/06/2019 1h00 6.2 1h30 9.2 2h55 18 5h10 31.9 16h13
15/06/2019 4h15 26.2 1h45 10.8 2h50 17.5 5h50 36 16h13
16/06/2019 10h05 62.1 1h00 6.2 2h10 13.3 1h10 7.2 16h14
17/06/2019 11h05 68.3 1h25 8.7 1h10 7.2 0h35 3.6 16h14
18/06/2019 8h25 51.8 1h40 10.3 4h25 27.2 0h10 1 16h14
19/06/2019 4h40 28.7 1h00 6.2 2h15 13.8 6h55 42.6 16h15
20/06/2019 3h05 19 0h55 5.6 3h25 21 6h40 41 16h15
21/06/2019 11h35 71.3 0h55 5.6 1h15 7.7 0h40 4.1 16h15
22/06/2019 0h30 3.1 0h25 2.6 1h55 11.8 11h35 71.3 16h15
23/06/2019 8h30 52.3 2h55 17.9 2h30 15.4 0h40 4.1 16h15
24/06/2019 10h50 66.7 2h35 15.9 0h45 4.6 0h00 0 16h14
Total 136h00 35.1 31h05 8.4 62h05 16.7 96h05 25.8 -